createdAt,value
2023-01-29T00:06:07.339Z,15.10
2023-01-29T00:13:25.994Z,16.40
2023-01-29T00:20:45.160Z,15.30
2023-01-29T00:28:04.751Z,12.20
2023-01-29T00:35:23.004Z,13.18
2023-01-29T00:42:58.808Z,18.27
2023-01-29T00:50:18.983Z,17.40
2023-01-29T00:57:38.213Z,13.82
2023-01-29T01:04:57.047Z,16.60
2023-01-29T01:12:20.139Z,15.80
2023-01-29T01:26:56.755Z,15.00
2023-01-29T01:34:16.790Z,18.50
2023-01-29T01:41:34.914Z,12.38
2023-01-29T01:48:57.081Z,15.32
2023-01-29T01:56:19.278Z,17.40
2023-01-29T02:04:00.443Z,16.17
2023-01-29T02:11:20.082Z,13.13
2023-01-29T02:18:39.561Z,17.15
2023-01-29T02:26:25.317Z,19.02
2023-01-29T02:33:52.371Z,16.80
2023-01-29T02:41:16.298Z,12.80
2023-01-29T02:48:42.556Z,15.35
2023-01-29T02:56:08.208Z,17.70
2023-01-29T03:03:30.018Z,14.63
2023-01-29T03:10:56.640Z,16.75
2023-01-29T03:18:19.767Z,14.52
2023-01-29T03:25:56.661Z,15.83
2023-01-29T03:33:22.889Z,15.43
2023-01-29T03:40:47.167Z,13.20
2023-01-29T03:48:09.562Z,12.88
2023-01-29T03:55:34.818Z,13.60
2023-01-29T04:02:59.085Z,13.68
2023-01-29T04:10:19.681Z,14.32
2023-01-29T04:17:41.844Z,10.00
2023-01-29T04:25:08.634Z,7.50
2023-01-29T04:32:32.324Z,9.02
2023-01-29T04:39:57.292Z,12.75
2023-01-29T04:47:22.294Z,10.55
2023-01-29T04:54:53.021Z,9.68
2023-01-29T05:02:12.117Z,11.77
2023-01-29T05:09:30.933Z,12.02
2023-01-29T05:16:53.662Z,10.32
2023-01-29T05:24:13.008Z,10.57
2023-01-29T05:31:31.273Z,13.18
2023-01-29T05:38:51.023Z,12.10
2023-01-29T05:46:09.789Z,11.80
2023-01-29T05:53:27.946Z,12.10
2023-01-29T06:00:47.981Z,9.23
2023-01-29T06:08:07.350Z,14.55
2023-01-29T06:15:26.753Z,9.70
2023-01-29T06:22:46.333Z,11.73
2023-01-29T06:30:04.912Z,15.73
2023-01-29T06:37:23.058Z,13.63
2023-01-29T06:44:42.873Z,12.55
2023-01-29T06:52:01.075Z,13.45
2023-01-29T06:59:19.311Z,11.25
2023-01-29T07:06:39.052Z,11.90
2023-01-29T07:13:57.346Z,15.13
2023-01-29T07:21:15.798Z,11.10
2023-01-29T07:28:39.084Z,13.68
2023-01-29T07:43:16.180Z,17.08
2023-01-29T07:50:39.061Z,15.77
2023-01-29T07:57:57.851Z,17.67
2023-01-29T08:05:16.076Z,14.68
2023-01-29T08:12:35.917Z,14.52
2023-01-29T08:19:54.193Z,14.68
2023-01-29T08:27:12.850Z,18.75
2023-01-29T08:34:32.410Z,17.15
2023-01-29T08:41:50.794Z,12.57
2023-01-29T08:49:09.938Z,13.18
2023-01-29T08:56:29.599Z,15.45
2023-01-29T09:03:47.753Z,17.90
2023-01-29T09:11:06.317Z,20.95
2023-01-29T09:18:26.615Z,18.38
2023-01-29T09:25:45.075Z,18.15
2023-01-29T09:33:03.226Z,16.50
2023-01-29T09:40:28.010Z,15.95
2023-01-29T09:47:46.348Z,16.70
2023-01-29T09:55:08.755Z,15.25
2023-01-29T10:02:51.214Z,18.13
2023-01-29T10:10:26.302Z,17.70
2023-01-29T10:18:09.521Z,13.07
2023-01-29T10:25:28.698Z,14.85
2023-01-29T10:32:47.373Z,17.20
2023-01-29T10:40:22.454Z,23.25
2023-01-29T10:48:19.056Z,17.77
2023-01-29T10:55:53.662Z,17.60
2023-01-29T11:03:27.316Z,18.30
2023-01-29T11:10:54.541Z,17.88
2023-01-29T11:18:15.939Z,18.65
2023-01-29T11:25:40.056Z,13.32
2023-01-29T11:33:20.428Z,18.25
2023-01-29T11:40:42.700Z,15.93
2023-01-29T11:48:01.751Z,18.67
2023-01-29T11:55:25.473Z,13.65
2023-01-29T12:02:45.580Z,16.80
2023-01-29T12:10:04.204Z,25.13
2023-01-29T12:17:26.460Z,18.15
2023-01-29T12:24:49.617Z,21.65
2023-01-29T12:32:13.796Z,19.58
2023-01-29T12:39:33.730Z,15.73
2023-01-29T12:46:54.593Z,16.58
2023-01-29T12:54:16.353Z,25.73
2023-01-29T13:01:39.086Z,12.48
2023-01-29T13:09:00.366Z,12.27
2023-01-29T13:16:23.032Z,15.25
2023-01-29T13:23:45.272Z,12.07
2023-01-29T13:31:15.989Z,13.65
2023-01-29T13:38:36.271Z,18.50
2023-01-29T13:45:56.827Z,12.55
2023-01-29T13:53:22.794Z,15.90
2023-01-29T14:01:01.526Z,15.40
2023-01-29T14:08:41.728Z,15.23
2023-01-29T14:16:29.613Z,19.00
2023-01-29T14:23:49.596Z,19.63
2023-01-29T14:31:08.785Z,19.60
2023-01-29T14:38:30.284Z,20.75
2023-01-29T14:45:49.924Z,22.05
2023-01-29T14:53:13.291Z,14.93
2023-01-29T15:08:02.140Z,20.92
2023-01-29T15:15:27.423Z,20.92
2023-01-29T15:22:47.636Z,21.38
2023-01-29T15:30:09.337Z,22.90
2023-01-29T15:37:29.327Z,26.05
2023-01-29T15:44:49.053Z,30.40
2023-01-29T15:52:10.408Z,27.45
2023-01-29T15:59:34.640Z,22.98
2023-01-29T16:06:55.033Z,19.20
2023-01-29T16:14:14.661Z,24.58
2023-01-29T16:21:34.638Z,22.08
2023-01-29T16:28:54.386Z,24.75
2023-01-29T16:36:17.321Z,23.75
2023-01-29T16:43:55.030Z,29.48
2023-01-29T16:51:16.109Z,25.17
2023-01-29T16:58:34.521Z,25.02
2023-01-29T17:05:54.486Z,28.52
2023-01-29T17:13:22.817Z,28.60
2023-01-29T17:20:41.225Z,25.65
2023-01-29T17:28:03.034Z,27.20
2023-01-29T17:35:21.546Z,19.75
2023-01-29T17:42:41.114Z,22.20
2023-01-29T17:50:01.577Z,25.95
2023-01-29T17:57:19.908Z,25.85
2023-01-29T18:04:38.657Z,18.60
2023-01-29T18:11:58.311Z,33.47
2023-01-29T18:19:21.309Z,18.05
2023-01-29T18:26:39.914Z,20.67
2023-01-29T18:33:59.581Z,23.35
2023-01-29T18:41:18.231Z,24.77
2023-01-29T18:48:36.707Z,23.45
2023-01-29T18:55:57.912Z,24.00
2023-01-29T19:03:17.385Z,21.85
2023-01-29T19:10:37.751Z,33.42
2023-01-29T19:17:57.649Z,27.85
2023-01-29T19:25:17.104Z,34.13
2023-01-29T19:32:35.904Z,34.58
2023-01-29T19:39:55.513Z,31.73
2023-01-29T19:47:14.416Z,31.33
2023-01-29T19:54:32.824Z,32.85
2023-01-29T20:01:52.624Z,29.42
2023-01-29T20:09:11.353Z,31.73
2023-01-29T20:16:30.035Z,28.23
2023-01-29T20:23:53.064Z,32.33
2023-01-29T20:31:11.783Z,33.58
2023-01-29T20:38:31.887Z,34.78
2023-01-29T20:45:51.753Z,39.28
2023-01-29T20:53:13.312Z,43.70
2023-01-29T21:00:32.017Z,46.80
2023-01-29T21:07:52.255Z,33.45
2023-01-29T21:15:11.697Z,36.50
2023-01-29T21:22:29.980Z,34.42
2023-01-29T21:29:49.958Z,36.70
2023-01-29T21:37:09.469Z,31.05
2023-01-29T21:44:27.758Z,29.80
2023-01-29T21:51:47.366Z,45.90
2023-01-29T21:59:05.948Z,27.52
2023-01-29T22:06:24.238Z,31.08
2023-01-29T22:13:44.192Z,31.67
2023-01-29T22:21:03.647Z,24.13
2023-01-29T22:28:22.374Z,25.63
2023-01-29T22:35:42.386Z,26.40
2023-01-29T22:43:00.627Z,29.67
2023-01-29T22:50:19.264Z,29.83
2023-01-29T22:57:40.297Z,30.27
2023-01-29T23:04:58.964Z,27.38
2023-01-29T23:12:17.473Z,19.98
2023-01-29T23:19:37.395Z,28.48
2023-01-29T23:27:13.213Z,25.45
2023-01-29T23:34:31.664Z,27.50
2023-01-29T23:41:51.527Z,22.25
2023-01-29T23:49:09.897Z,25.65
2023-01-29T23:56:28.428Z,23.25
